»·PEaware :: UAL1399 KEUG-KSEA

UAL1399 :: KEUG-KSEA

FLIGHT INFORMATION

Flight Status: Arrived
Operator:
United Airlines
More flights by this operator :: More flights under this callsign
Pilot: David C. (16084)
Aircraft: AIRBUS A320
(A320)
More flights by this aircraft type
Origin: KEUG Mahlon Sweet
United States
Destination: KSEA Seattle-Tacoma Intl
United States
More flights between these airports :: More routes between these airports
Route: +EUG9 EUG V481 CVO V495 UBG KRIEG HAWKZ6
File this flight plan on PilotEdge
Remarks:
Altitude:
(Current/Filed)
28,000ft
Speed:
(Current/Filed)
495kts
Departed: 23-Aug-18 09:24 AM
Arrived: 23-Aug-18 10:09 AM
Distance/Time
Traveled:
203nm/0:45
Distance/Time
To Go:
Arrived

Flight Plot

Page will automatically refresh every two minutes.

Flight plan parsing failed; only flown route is shown


Map Options




Map Legend


Flown Route
Filed Route
Departure Airport
Arrival Airport
Navaid (VOR, NDB)
Fix

Horizontal Profiles

Position Reports

Time Latitude Longitude Heading Altitude Ground
Speed
23-Aug-18 08:57 44.120209 -123.214301 164 383ft 0kts
23-Aug-18 08:58 44.120209 -123.214301 164 383ft 0kts
23-Aug-18 08:59 44.120209 -123.214301 164 383ft 0kts
23-Aug-18 09:00 44.120209 -123.214301 164 383ft 0kts
23-Aug-18 09:01 44.120209 -123.214301 164 383ft 0kts
23-Aug-18 09:02 44.120209 -123.214301 164 383ft 0kts
23-Aug-18 09:03 44.120209 -123.214301 164 383ft 0kts
23-Aug-18 09:04 44.120209 -123.214301 164 383ft 0kts
23-Aug-18 09:05 44.120209 -123.214301 164 383ft 0kts
23-Aug-18 09:06 44.120209 -123.214301 164 383ft 0kts
23-Aug-18 09:07 44.120209 -123.214301 164 383ft 0kts
23-Aug-18 09:08 44.120209 -123.214301 164 383ft 0kts
23-Aug-18 09:09 44.120209 -123.214301 164 383ft 0kts
23-Aug-18 09:10 44.120209 -123.214301 164 383ft 0kts
23-Aug-18 09:11 44.120425 -123.214364 182 383ft 2kts
23-Aug-18 09:12 44.120916 -123.213971 241 383ft 2kts
23-Aug-18 09:13 44.120988 -123.213548 269 383ft 0kts
23-Aug-18 09:14 44.120988 -123.213549 269 383ft 0kts
23-Aug-18 09:15 44.120988 -123.213549 269 383ft 0kts
23-Aug-18 09:16 44.120988 -123.213549 269 383ft 0kts
23-Aug-18 09:17 44.120988 -123.213549 269 383ft 0kts
23-Aug-18 09:18 44.120988 -123.213549 269 383ft 0kts
23-Aug-18 09:19 44.123685 -123.216371 327 383ft 20kts
23-Aug-18 09:20 44.128308 -123.217141 358 383ft 18kts
23-Aug-18 09:21 44.133847 -123.217197 358 383ft 21kts
23-Aug-18 09:22 44.135284 -123.217766 274 383ft 0kts
23-Aug-18 09:23 44.135285 -123.217773 274 383ft 1kts
23-Aug-18 09:24 44.134256 -123.219144 180 383ft 35kts
23-Aug-18 09:25 44.093350 -123.217733 178 1825ft 201kts
23-Aug-18 09:26 44.036681 -123.215164 179 5230ft 213kts
23-Aug-18 09:27 44.001669 -123.261477 287 8341ft 220kts
23-Aug-18 09:28 44.056683 -123.289124 355 11242ft 244kts
23-Aug-18 09:29 44.133699 -123.290369 356 13082ft 314kts
23-Aug-18 09:30 44.222464 -123.291261 355 15861ft 331kts
23-Aug-18 09:31 44.315788 -123.292150 355 18448ft 345kts
23-Aug-18 09:32 44.412569 -123.293014 354 20756ft 358kts
23-Aug-18 09:33 44.513473 -123.288880 9 22587ft 386kts
23-Aug-18 09:34 44.618992 -123.250174 9 24302ft 402kts
23-Aug-18 09:35 44.727972 -123.210302 9 25968ft 414kts
23-Aug-18 09:36 44.839786 -123.169198 9 27486ft 425kts
23-Aug-18 09:37 44.954855 -123.126744 9 28208ft 442kts
23-Aug-18 09:38 45.078589 -123.080796 11 28203ft 482kts
23-Aug-18 09:39 45.207281 -123.032845 11 28205ft 501kts
23-Aug-18 09:40 45.340913 -122.983017 10 28203ft 500kts
23-Aug-18 09:41 45.475031 -122.946557 6 28191ft 498kts
23-Aug-18 09:42 45.609632 -122.911287 6 28191ft 498kts
23-Aug-18 09:43 45.744237 -122.875867 6 28183ft 498kts
23-Aug-18 09:44 45.877199 -122.840710 6 28184ft 499kts
23-Aug-18 09:45 46.011991 -122.804894 6 28203ft 498kts
23-Aug-18 09:46 46.140547 -122.770572 6 28040ft 498kts
23-Aug-18 09:47 46.262814 -122.737775 6 26556ft 494kts
23-Aug-18 09:48 46.396035 -122.725026 354 23379ft 483kts
23-Aug-18 09:49 46.525619 -122.729751 354 20660ft 466kts
23-Aug-18 09:50 46.648750 -122.734209 354 18932ft 426kts
23-Aug-18 09:51 46.758655 -122.738185 356 18119ft 375kts
23-Aug-18 09:52 46.844246 -122.668464 35 16733ft 362kts
23-Aug-18 09:53 46.921001 -122.581121 34 15201ft 343kts
23-Aug-18 09:54 47.003041 -122.533615 12 13908ft 318kts
23-Aug-18 09:55 47.085473 -122.499321 4 12390ft 308kts
23-Aug-18 09:56 47.155858 -122.486522 2 11092ft 303kts
23-Aug-18 09:57 47.226528 -122.474468 1 9890ft 295kts
23-Aug-18 09:58 47.298818 -122.463579 2 8560ft 292kts
23-Aug-18 09:59 47.372256 -122.455198 357 7789ft 269kts
23-Aug-18 10:00 47.444988 -122.454606 356 6722ft 277kts
23-Aug-18 10:01 47.515906 -122.455472 356 6042ft 239kts
23-Aug-18 10:02 47.579216 -122.456095 359 6030ft 238kts
23-Aug-18 10:03 47.642529 -122.447967 25 4862ft 239kts
23-Aug-18 10:04 47.658747 -122.369917 101 3340ft 228kts
23-Aug-18 10:05 47.622342 -122.319951 164 3027ft 172kts
23-Aug-18 10:06 47.578440 -122.316810 179 2700ft 163kts
23-Aug-18 10:07 47.543582 -122.317043 179 1989ft 133kts
23-Aug-18 10:08 47.507949 -122.317400 179 1336ft 133kts
23-Aug-18 10:09 47.472711 -122.317746 180 663ft 131kts
23-Aug-18 10:10 47.446726 -122.317769 167 442ft 38kts
23-Aug-18 10:11 47.443378 -122.315347 143 442ft 0kts
23-Aug-18 10:12 47.442451 -122.313854 113 442ft 16kts
23-Aug-18 10:13 47.439334 -122.308974 131 442ft 20kts
23-Aug-18 10:14 47.440452 -122.301632 91 442ft 17kts
23-Aug-18 10:15 47.440149 -122.299093 47 442ft 0kts
23-Aug-18 10:16 47.440166 -122.299066 46 442ft 0kts
23-Aug-18 10:17 47.440166 -122.299066 46 442ft 0kts
23-Aug-18 10:18 47.440166 -122.299066 46 442ft 0kts

Navigation Log

Ident Type
Flight plan parsing failed, navigation log unavailable